Time;durP1;ratioP1;P1;durP2;ratioP2;P2;SDS_P1;SDS_P2;PMS_P1;PMS_P2;Temp;Humidity;BMP_temperature;BMP_pressure;BME280_temperature;BME280_humidity;BME280_pressure;Samples;Min_cycle;Max_cycle;Signal;HPM_P1;HPM_P2
2023/08/24 00:01:20;;;;;;;4.40;2.78;;;;;;;22.70;51.40;100105.19;5048979;28;20063;-78
2023/08/24 00:03:47;;;;;;;5.40;2.65;;;;;;;22.67;51.48;100113.53;5051116;28;20049;-78
2023/08/24 00:06:14;;;;;;;5.13;2.58;;;;;;;22.65;51.22;100116.38;5050874;28;20409;-80
2023/08/24 00:08:41;;;;;;;3.67;2.38;;;;;;;22.63;51.46;100107.66;5033085;28;20041;-77
2023/08/24 00:11:07;;;;;;;3.58;2.60;;;;;;;22.62;51.48;100111.31;5033088;28;20118;-79
2023/08/24 00:13:34;;;;;;;4.18;2.70;;;;;;;22.60;51.61;100113.31;5050971;28;20446;-79
2023/08/24 00:16:01;;;;;;;3.45;2.10;;;;;;;22.59;51.63;100114.34;5048971;28;20519;-77
2023/08/24 00:18:27;;;;;;;4.57;2.65;;;;;;;22.59;51.87;100118.84;5023154;28;20099;-79
2023/08/24 00:20:54;;;;;;;3.38;2.30;;;;;;;22.58;51.58;100117.16;5030914;28;20046;-77
2023/08/24 00:23:20;;;;;;;6.45;2.92;;;;;;;22.57;51.96;100110.94;5030692;28;20053;-79
2023/08/24 00:25:46;;;;;;;7.45;3.10;;;;;;;22.56;52.32;100109.28;5013098;28;20060;-78
2023/08/24 00:28:13;;;;;;;5.10;3.40;;;;;;;22.55;52.26;100107.59;5044398;28;20081;-78
2023/08/24 00:30:39;;;;;;;5.43;2.75;;;;;;;22.53;52.47;100109.56;5050471;28;20651;-82
2023/08/24 00:33:06;;;;;;;5.50;2.80;;;;;;;22.51;52.42;100100.84;5033186;28;20083;-78
2023/08/24 00:35:32;;;;;;;3.05;2.75;;;;;;;22.50;52.35;100097.28;5050826;28;20056;-77
2023/08/24 00:37:59;;;;;;;4.80;3.00;;;;;;;22.48;52.07;100095.78;5023768;28;20053;-81
2023/08/24 00:40:26;;;;;;;5.13;2.75;;;;;;;22.47;52.00;100084.19;5030381;28;20058;-79
2023/08/24 00:42:53;;;;;;;4.85;3.17;;;;;;;22.44;52.52;100087.22;5022464;28;20135;-78
2023/08/24 00:45:19;;;;;;;5.70;2.60;;;;;;;22.45;52.50;100088.88;5030685;28;20045;-77
2023/08/24 00:47:47;;;;;;;5.65;2.58;;;;;;;22.41;52.67;100086.66;5034713;28;20075;-78
2023/08/24 00:50:17;;;;;;;6.57;2.85;;;;;;;22.38;52.66;100085.13;5050485;28;20053;-77
2023/08/24 00:52:44;;;;;;;3.55;2.70;;;;;;;22.35;52.36;100088.16;5050563;28;20135;-76
2023/08/24 00:55:11;;;;;;;4.60;2.80;;;;;;;22.32;52.50;100091.97;5050504;28;20156;-77
2023/08/24 00:57:39;;;;;;;4.65;3.05;;;;;;;22.29;52.72;100088.75;5049736;28;20045;-77
2023/08/24 01:00:10;;;;;;;4.10;2.60;;;;;;;22.24;52.72;100087.38;5030344;28;20573;-76
2023/08/24 01:02:40;;;;;;;4.18;2.63;;;;;;;22.19;53.11;100087.03;5013262;28;20042;-77
2023/08/24 01:05:07;;;;;;;4.47;2.85;;;;;;;22.19;52.69;100087.03;5012904;28;20049;-77
2023/08/24 01:07:39;;;;;;;4.18;2.40;;;;;;;22.12;52.95;100084.13;5030355;28;20064;-79
2023/08/24 01:10:07;;;;;;;4.38;2.72;;;;;;;22.13;52.69;100082.28;5021835;28;20053;-78
2023/08/24 01:12:56;;;;;;;7.22;2.85;;;;;;;22.06;53.45;100081.22;5050572;28;20052;-82
2023/08/24 01:15:35;;;;;;;4.75;3.00;;;;;;;22.06;53.74;100087.44;5036188;28;20165;-79
2023/08/24 01:18:08;;;;;;;3.90;2.85;;;;;;;22.06;53.71;100082.06;5053831;28;20135;-82
2023/08/24 01:20:37;;;;;;;6.50;3.30;;;;;;;22.04;53.03;100075.16;5024891;28;20053;-77
2023/08/24 01:23:28;;;;;;;5.47;3.58;;;;;;;21.95;53.65;100067.06;5033826;28;20549;-78
2023/08/24 01:26:13;;;;;;;7.85;3.55;;;;;;;21.90;53.53;100073.88;5033706;28;20500;-77
2023/08/24 01:28:43;;;;;;;8.77;3.38;;;;;;;21.86;53.32;100063.47;5033569;28;20654;-77
2023/08/24 01:31:10;;;;;;;5.25;3.70;;;;;;;21.80;53.38;100064.09;5045630;28;20079;-78
2023/08/24 01:33:36;;;;;;;7.95;4.03;;;;;;;21.73;53.58;100063.88;5053542;28;20072;-77
2023/08/24 01:36:03;;;;;;;8.82;4.50;;;;;;;21.69;53.94;100067.81;5053371;28;20049;-78
2023/08/24 01:38:30;;;;;;;7.10;4.53;;;;;;;21.65;54.00;100063.75;5053342;28;20045;-78
2023/08/24 01:41:13;;;;;;;7.07;4.47;;;;;;;21.56;54.74;100056.59;5044925;28;20041;-77
2023/08/24 01:43:43;;;;;;;6.68;4.72;;;;;;;21.56;54.29;100048.56;5029231;28;20102;-81
2023/08/24 01:46:14;;;;;;;6.80;5.10;;;;;;;21.52;54.49;100050.72;5053608;28;20057;-80
2023/08/24 01:48:42;;;;;;;9.40;5.60;;;;;;;21.48;54.63;100044.84;5053329;28;20041;-82
2023/08/24 01:51:10;;;;;;;9.32;5.68;;;;;;;21.47;55.07;100042.31;5045828;28;20053;-77
2023/08/24 01:53:39;;;;;;;9.98;6.40;;;;;;;21.47;55.20;100045.00;5043668;28;20091;-76
2023/08/24 01:56:13;;;;;;;7.90;5.85;;;;;;;21.45;56.31;100050.50;5052930;28;20136;-79
2023/08/24 01:58:39;;;;;;;11.93;6.50;;;;;;;21.48;55.44;100041.31;5053296;28;20052;-77
2023/08/24 02:01:10;;;;;;;11.38;6.40;;;;;;;21.50;55.58;100033.13;5048690;28;20491;-78
2023/08/24 02:03:38;;;;;;;9.68;5.95;;;;;;;21.50;55.51;100033.97;5015437;28;20053;-77
2023/08/24 02:06:06;;;;;;;13.02;7.40;;;;;;;21.50;55.65;100038.47;5032851;28;20053;-79
2023/08/24 02:08:33;;;;;;;13.90;7.53;;;;;;;21.51;55.83;100037.47;5033697;28;20049;-80
2023/08/24 02:11:00;;;;;;;12.02;6.93;;;;;;;21.51;55.58;100021.41;5015108;28;20052;-81
2023/08/24 02:13:26;;;;;;;11.63;7.57;;;;;;;21.49;55.81;100010.84;5034944;28;20056;-78
2023/08/24 02:16:07;;;;;;;10.88;7.60;;;;;;;21.43;56.52;100012.31;5044454;28;20045;-77
2023/08/24 02:18:34;;;;;;;9.25;6.72;;;;;;;21.45;55.88;99998.75;5052344;28;20040;-78
2023/08/24 02:21:06;;;;;;;9.52;7.55;;;;;;;21.42;56.02;99999.09;5052255;28;20083;-78
2023/08/24 02:23:32;;;;;;;11.90;7.97;;;;;;;21.41;56.07;100008.13;5034043;28;20049;-77
2023/08/24 02:25:59;;;;;;;9.00;7.05;;;;;;;21.39;56.20;100010.94;5014013;28;20131;-77
2023/08/24 02:28:25;;;;;;;9.77;7.22;;;;;;;21.39;56.51;100012.78;5032326;28;20500;-78
2023/08/24 02:30:53;;;;;;;12.35;7.18;;;;;;;21.39;56.93;100013.63;5032228;28;20057;-83
2023/08/24 02:33:20;;;;;;;12.18;7.68;;;;;;;21.40;56.83;100017.97;5032577;28;20598;-78
2023/08/24 02:35:47;;;;;;;11.63;8.65;;;;;;;21.41;57.08;100016.16;5014729;28;20053;-81
2023/08/24 02:38:14;;;;;;;12.90;7.57;;;;;;;21.43;57.12;100017.69;5032196;28;20557;-80
2023/08/24 02:40:40;;;;;;;12.93;7.80;;;;;;;21.45;56.79;100009.47;5032216;28;20136;-77
2023/08/24 02:43:07;;;;;;;10.50;8.40;;;;;;;21.46;56.97;100001.28;5041250;28;20144;-82
2023/08/24 02:45:34;;;;;;;12.38;7.93;;;;;;;21.48;56.73;99996.63;5034421;28;20409;-77
2023/08/24 02:48:00;;;;;;;14.93;8.45;;;;;;;21.51;56.78;100000.00;5034000;28;20106;-78
2023/08/24 02:50:27;;;;;;;11.60;8.23;;;;;;;21.52;56.81;100005.19;5051972;28;20095;-81
2023/08/24 02:52:53;;;;;;;14.90;9.30;;;;;;;21.52;56.89;100007.88;5047246;28;20053;-81
2023/08/24 02:55:20;;;;;;;10.65;8.25;;;;;;;21.54;57.03;99994.34;5032036;28;20142;-77
2023/08/24 02:57:46;;;;;;;11.82;8.70;;;;;;;21.53;56.66;100004.19;5014369;28;20132;-78
2023/08/24 03:00:13;;;;;;;13.30;8.52;;;;;;;21.54;56.74;100007.72;5031756;28;20119;-81
2023/08/24 03:02:40;;;;;;;13.73;9.20;;;;;;;21.54;56.85;100007.72;5014378;28;20055;-82
2023/08/24 03:05:07;;;;;;;11.45;8.43;;;;;;;21.54;56.79;100010.41;5014568;28;20055;-78
2023/08/24 03:07:33;;;;;;;10.20;8.02;;;;;;;21.54;56.77;100000.53;5031914;28;20156;-77
2023/08/24 03:10:00;;;;;;;12.70;8.13;;;;;;;21.55;56.87;100006.72;5031787;28;20056;-78
2023/08/24 03:12:27;;;;;;;11.73;8.50;;;;;;;21.56;56.86;100011.06;5032052;28;20140;-81
2023/08/24 03:14:54;;;;;;;10.93;7.65;;;;;;;21.58;56.77;100014.47;5037759;28;20048;-79
2023/08/24 03:17:21;;;;;;;10.38;8.50;;;;;;;21.59;57.02;100013.47;5033797;28;20507;-77
2023/08/24 03:19:47;;;;;;;13.23;8.25;;;;;;;21.61;56.95;100014.16;5051234;28;20140;-78
2023/08/24 03:22:14;;;;;;;12.70;7.60;;;;;;;21.63;56.95;100009.47;5051619;28;20416;-78
2023/08/24 03:24:40;;;;;;;12.55;8.23;;;;;;;21.66;56.86;100002.97;5041027;28;20085;-79
2023/08/24 03:27:07;;;;;;;9.10;7.40;;;;;;;21.67;56.84;99994.78;5031501;28;20136;-77
2023/08/24 03:29:33;;;;;;;11.10;7.35;;;;;;;21.68;56.76;100001.81;5031302;28;20152;-78
2023/08/24 03:32:00;;;;;;;11.98;7.53;;;;;;;21.70;56.80;100002.53;5031406;28;20143;-79
2023/08/24 03:34:27;;;;;;;11.93;7.93;;;;;;;21.72;56.67;100005.91;5036749;28;20401;-77
2023/08/24 03:36:53;;;;;;;7.10;6.30;;;;;;;21.72;56.57;100018.44;5050678;28;20053;-78
2023/08/24 03:39:20;;;;;;;11.25;7.05;;;;;;;21.72;56.60;100016.63;5051147;28;20060;-77
2023/08/24 03:41:46;;;;;;;8.60;6.43;;;;;;;21.74;56.40;100014.63;5051150;28;20158;-82
2023/08/24 03:44:13;;;;;;;8.63;6.10;;;;;;;21.76;56.59;100013.63;5050091;28;20096;-79
2023/08/24 03:46:39;;;;;;;9.23;6.03;;;;;;;21.76;56.56;100017.16;5031100;28;20053;-78
2023/08/24 03:49:06;;;;;;;10.20;5.32;;;;;;;21.79;56.83;100029.41;5030777;28;20053;-83
2023/08/24 03:51:32;;;;;;;10.55;6.32;;;;;;;21.81;56.52;100028.25;5031530;28;20053;-77
2023/08/24 03:53:59;;;;;;;7.82;5.90;;;;;;;21.84;56.42;100029.78;5031372;28;20092;-77
2023/08/24 03:56:26;;;;;;;7.85;6.18;;;;;;;21.86;56.35;100030.47;5039747;28;20132;-79
2023/08/24 03:58:52;;;;;;;7.40;5.60;;;;;;;21.87;56.42;100022.28;5031176;28;20088;-79
2023/08/24 04:01:18;;;;;;;13.85;6.57;;;;;;;21.89;56.50;100019.44;5031179;28;20059;-78
2023/08/24 04:03:45;;;;;;;8.27;5.15;;;;;;;21.90;56.35;100022.97;5030996;28;20049;-77
2023/08/24 04:06:12;;;;;;;7.95;6.47;;;;;;;21.90;56.63;100023.78;5014401;28;20085;-80
2023/08/24 04:08:38;;;;;;;8.80;6.50;;;;;;;21.91;56.70;100016.59;5030825;28;20136;-82
2023/08/24 04:11:05;;;;;;;9.27;6.10;;;;;;;21.93;56.30;100014.59;5013534;28;20045;-77
2023/08/24 04:13:31;;;;;;;10.13;6.72;;;;;;;21.92;56.64;100015.59;5030840;28;20124;-77
2023/08/24 04:15:58;;;;;;;7.80;6.32;;;;;;;21.90;56.56;100006.91;5030791;28;20136;-79
2023/08/24 04:18:24;;;;;;;12.05;6.75;;;;;;;21.87;56.98;100018.75;5047422;28;20041;-78
2023/08/24 04:20:54;;;;;;;8.80;6.55;;;;;;;21.83;57.19;100017.38;5050880;28;20494;-80
2023/08/24 04:23:27;;;;;;;9.65;6.15;;;;;;;21.80;57.56;100015.00;5050807;28;20127;-78
2023/08/24 04:25:54;;;;;;;11.90;6.82;;;;;;;21.80;57.04;100012.34;5048950;28;20144;-77
2023/08/24 04:28:21;;;;;;;10.02;6.60;;;;;;;21.79;57.39;100006.13;5044447;28;20103;-77
2023/08/24 04:30:55;;;;;;;12.40;6.55;;;;;;;21.74;57.72;99990.53;5030194;28;20045;-77
2023/08/24 04:33:23;;;;;;;7.65;5.53;;;;;;;21.77;56.99;99994.72;5041863;28;20056;-79
2023/08/24 04:35:50;;;;;;;10.18;7.10;;;;;;;21.76;57.15;99984.16;5050063;28;20053;-78
2023/08/24 04:38:17;;;;;;;11.95;6.43;;;;;;;21.74;57.08;99987.84;5031636;28;20092;-78
2023/08/24 04:41:07;;;;;;;11.30;6.72;;;;;;;21.72;57.46;99989.81;5120333;22;20019;-78
2023/08/24 04:43:33;;;;;;;10.25;6.00;;;;;;;21.71;57.30;99977.41;5049977;28;20056;-78
2023/08/24 04:46:00;;;;;;;8.07;5.95;;;;;;;21.71;57.88;99992.63;5049939;28;20147;-82
2023/08/24 04:48:26;;;;;;;8.00;6.85;;;;;;;21.69;57.89;99989.28;5050480;28;20048;-76
2023/08/24 04:50:53;;;;;;;10.05;6.65;;;;;;;21.68;58.19;99991.09;5035385;28;20116;-82
2023/08/24 04:53:20;;;;;;;9.60;6.35;;;;;;;21.69;57.95;99991.94;5053346;28;20052;-81
2023/08/24 04:55:46;;;;;;;7.65;5.75;;;;;;;21.68;58.16;99991.09;5053817;28;20041;-77
2023/08/24 04:58:13;;;;;;;8.45;6.30;;;;;;;21.67;58.06;99989.44;5052459;28;20052;-77
2023/08/24 05:00:40;;;;;;;10.73;5.50;;;;;;;21.65;58.16;99988.75;5035877;28;20049;-79
2023/08/24 05:03:07;;;;;;;9.45;5.97;;;;;;;21.65;58.38;99980.72;5034202;28;20049;-78
2023/08/24 05:05:35;;;;;;;6.43;5.65;;;;;;;21.66;58.31;99976.19;5034167;28;20132;-78
2023/08/24 05:08:05;;;;;;;8.88;6.30;;;;;;;21.65;58.32;99964.66;5033604;28;20144;-79
2023/08/24 05:10:33;;;;;;;8.00;6.03;;;;;;;21.66;58.36;99962.78;5046493;28;20518;-81
2023/08/24 05:13:00;;;;;;;9.60;6.05;;;;;;;21.66;58.22;99952.06;5053983;28;20041;-78
2023/08/24 05:15:27;;;;;;;12.10;6.20;;;;;;;21.66;58.41;99963.63;5053805;28;20088;-81
2023/08/24 05:17:55;;;;;;;8.40;6.13;;;;;;;21.65;58.70;99959.28;5053612;28;20574;-77
2023/08/24 05:20:22;;;;;;;10.57;5.75;;;;;;;21.64;58.49;99959.44;5053227;28;20056;-77
2023/08/24 05:22:49;;;;;;;11.18;6.35;;;;;;;21.64;58.53;99951.41;5053570;28;20110;-77
2023/08/24 05:25:18;;;;;;;9.25;5.90;;;;;;;21.63;58.46;99955.91;5053790;28;20080;-77
2023/08/24 05:27:45;;;;;;;6.93;5.53;;;;;;;21.62;58.20;99956.91;5053559;28;20049;-80
2023/08/24 05:30:12;;;;;;;9.30;5.55;;;;;;;21.63;58.40;99952.41;5052848;28;20660;-76
2023/08/24 05:32:38;;;;;;;8.30;5.40;;;;;;;21.62;58.60;99954.22;5053514;28;20045;-77
2023/08/24 05:35:06;;;;;;;6.97;5.57;;;;;;;21.61;58.66;99961.41;5053363;28;20131;-76
2023/08/24 05:37:33;;;;;;;6.97;5.57;;;;;;;21.60;58.59;99961.56;5053350;28;20114;-78
2023/08/24 05:40:01;;;;;;;10.73;5.78;;;;;;;21.61;58.68;99958.72;5052780;28;20080;-79
2023/08/24 05:42:30;;;;;;;9.57;6.00;;;;;;;21.60;58.66;99962.41;5033436;28;20417;-78
2023/08/24 05:44:57;;;;;;;8.60;6.18;;;;;;;21.61;58.83;99966.75;5033252;28;20053;-77
2023/08/24 05:47:23;;;;;;;8.35;5.50;;;;;;;21.62;58.85;99981.00;5033218;28;20176;-78
2023/08/24 05:49:50;;;;;;;8.80;5.32;;;;;;;21.61;58.56;99979.34;5032851;28;20057;-76
2023/08/24 05:52:16;;;;;;;8.95;5.70;;;;;;;21.61;58.85;99984.69;5033658;28;20119;-80
2023/08/24 05:54:43;;;;;;;7.85;5.30;;;;;;;21.61;58.76;99979.34;5049873;28;20052;-80
2023/08/24 05:57:09;;;;;;;7.30;6.07;;;;;;;21.59;58.79;99987.53;5032833;28;20049;-80
2023/08/24 05:59:36;;;;;;;7.35;5.15;;;;;;;21.59;59.01;99976.81;5014917;28;20408;-77
2023/08/24 06:02:03;;;;;;;8.65;5.68;;;;;;;21.58;58.88;99968.94;5026237;28;20067;-77
2023/08/24 06:04:30;;;;;;;10.10;6.40;;;;;;;21.57;58.58;99960.03;5052726;28;20128;-81
2023/08/24 06:06:56;;;;;;;10.48;6.50;;;;;;;21.55;58.57;99961.19;5052937;28;20421;-77
2023/08/24 06:09:23;;;;;;;8.63;5.60;;;;;;;21.52;58.65;99958.84;5052567;28;20080;-76
2023/08/24 06:11:49;;;;;;;9.18;5.90;;;;;;;21.50;59.23;99955.47;5045907;28;20676;-81
2023/08/24 06:14:16;;;;;;;8.77;5.75;;;;;;;21.47;59.49;99962.81;5032781;28;20093;-79
2023/08/24 06:16:42;;;;;;;7.65;5.80;;;;;;;21.48;59.58;99961.81;5032590;28;20046;-77
2023/08/24 06:19:09;;;;;;;6.78;5.35;;;;;;;21.51;59.65;99957.13;5032372;28;20049;-77
2023/08/24 06:21:35;;;;;;;9.95;6.10;;;;;;;21.51;59.93;99949.97;5034324;28;20152;-76
2023/08/24 06:24:03;;;;;;;11.07;6.00;;;;;;;21.55;59.91;99950.47;5052636;28;20096;-77
2023/08/24 06:26:30;;;;;;;9.48;6.68;;;;;;;21.56;59.93;99953.00;5035039;28;20049;-82
2023/08/24 06:28:56;;;;;;;9.15;5.80;;;;;;;21.59;59.96;99944.66;5014656;28;20072;-77
2023/08/24 06:31:23;;;;;;;7.25;6.13;;;;;;;21.63;60.16;99955.91;5032310;28;20049;-78
2023/08/24 06:33:50;;;;;;;9.13;6.63;;;;;;;21.68;60.25;99953.59;5048988;28;20136;-79
2023/08/24 06:36:16;;;;;;;13.13;6.07;;;;;;;21.72;60.28;99938.06;5014594;28;20056;-77
2023/08/24 06:38:43;;;;;;;11.95;6.57;;;;;;;21.78;60.53;99945.50;5032162;28;20054;-78
2023/08/24 06:41:12;;;;;;;7.85;5.88;;;;;;;21.84;60.29;99938.69;5032050;28;20132;-77
2023/08/24 06:43:39;;;;;;;11.23;6.55;;;;;;;21.89;60.32;99924.78;5044683;28;20053;-77
2023/08/24 06:46:09;;;;;;;8.90;6.50;;;;;;;21.94;60.08;99925.19;5051793;28;20725;-77
2023/08/24 06:48:37;;;;;;;8.63;6.40;;;;;;;21.99;60.62;99920.19;5051270;28;20080;-78
2023/08/24 06:51:03;;;;;;;12.82;6.78;;;;;;;22.03;60.51;99923.38;5051712;28;20049;-77
2023/08/24 06:53:30;;;;;;;8.23;6.50;;;;;;;22.06;60.54;99913.19;5051893;28;20524;-77
2023/08/24 06:55:57;;;;;;;12.10;6.53;;;;;;;22.11;60.97;99920.75;5165133;22;20053;-81
2023/08/24 06:58:24;;;;;;;7.20;6.50;;;;;;;22.15;60.71;99914.06;5051126;28;20102;-77
2023/08/24 07:00:51;;;;;;;9.73;6.28;;;;;;;22.19;60.49;99910.06;5032456;28;20053;-77
2023/08/24 07:03:18;;;;;;;11.00;6.32;;;;;;;22.24;60.55;99904.25;5031947;28;20053;-82
2023/08/24 07:05:45;;;;;;;10.25;6.30;;;;;;;22.29;60.34;99903.75;5031874;28;20089;-78
2023/08/24 07:08:13;;;;;;;11.63;6.80;;;;;;;22.35;60.47;99903.13;5014047;28;20561;-78
2023/08/24 07:10:40;;;;;;;8.23;6.30;;;;;;;22.40;60.35;99900.78;5014592;28;20409;-77
2023/08/24 07:13:07;;;;;;;11.00;6.97;;;;;;;22.48;60.41;99899.97;5031591;28;20414;-77
2023/08/24 07:15:34;;;;;;;6.38;5.55;;;;;;;22.55;60.19;99908.22;5031646;28;20136;-81
2023/08/24 07:18:02;;;;;;;8.35;6.35;;;;;;;22.61;60.33;99904.91;5031312;28;20501;-77
2023/08/24 07:20:29;;;;;;;7.68;6.43;;;;;;;22.68;60.29;99902.41;5032446;28;20064;-79
2023/08/24 07:22:57;;;;;;;6.65;5.93;;;;;;;22.73;60.23;99894.72;5042666;28;20485;-78
2023/08/24 07:25:23;;;;;;;8.05;5.70;;;;;;;22.80;60.21;99894.91;5051258;28;20084;-80
2023/08/24 07:27:50;;;;;;;7.63;5.57;;;;;;;22.86;60.19;99881.66;5051102;28;20153;-77
2023/08/24 07:30:17;;;;;;;6.55;5.95;;;;;;;22.94;60.21;99878.13;5048222;28;20490;-80
2023/08/24 07:32:59;;;;;;;7.28;5.65;;;;;;;23.00;59.68;99869.44;5031368;28;20586;-82
2023/08/24 07:35:26;;;;;;;6.95;5.72;;;;;;;23.08;59.85;99870.44;5031289;28;20081;-78
2023/08/24 07:37:53;;;;;;;7.38;5.93;;;;;;;23.15;60.08;99872.31;5031010;28;20076;-77
2023/08/24 07:40:19;;;;;;;8.82;5.75;;;;;;;23.22;60.28;99877.84;5030852;28;20060;-81
2023/08/24 07:42:52;;;;;;;5.45;4.95;;;;;;;23.29;59.52;99872.63;5046223;28;20049;-78
2023/08/24 07:45:19;;;;;;;7.28;5.55;;;;;;;23.35;59.78;99869.28;5033506;28;20580;-76
2023/08/24 07:47:46;;;;;;;7.75;5.57;;;;;;;23.41;59.58;99871.28;5050934;28;20053;-81
2023/08/24 07:50:12;;;;;;;7.10;5.50;;;;;;;23.48;59.62;99879.53;5033112;28;20053;-78
2023/08/24 07:52:39;;;;;;;9.10;5.20;;;;;;;23.53;59.61;99874.50;5039205;28;20617;-78
2023/08/24 07:55:07;;;;;;;7.90;5.32;;;;;;;23.60;59.55;99879.19;5013490;28;20138;-78
2023/08/24 07:57:34;;;;;;;6.63;5.47;;;;;;;23.66;59.83;99879.34;5030961;28;20052;-76
2023/08/24 08:00:01;;;;;;;8.95;6.20;;;;;;;23.72;59.61;99880.50;5030911;28;20045;-77
2023/08/24 08:02:32;;;;;;;6.68;5.07;;;;;;;23.80;59.78;99882.31;5021035;28;20041;-77
2023/08/24 08:04:59;;;;;;;8.35;5.93;;;;;;;23.87;59.31;99887.84;5050800;28;20433;-78
2023/08/24 08:07:26;;;;;;;8.55;4.82;;;;;;;23.93;59.23;99887.19;5050659;28;20085;-77
2023/08/24 08:09:53;;;;;;;5.47;4.63;;;;;;;24.00;59.25;99887.31;5042460;28;20056;-76
2023/08/24 08:12:19;;;;;;;6.60;4.75;;;;;;;24.07;59.01;99886.47;5029677;28;20525;-80
2023/08/24 08:14:46;;;;;;;6.60;5.38;;;;;;;24.17;58.35;99893.50;5030740;28;20656;-78
2023/08/24 08:17:12;;;;;;;7.72;5.82;;;;;;;24.25;58.51;99880.03;5030795;28;20058;-77
2023/08/24 08:19:39;;;;;;;6.35;4.88;;;;;;;24.36;58.93;99880.69;5012801;28;20053;-77
2023/08/24 08:22:06;;;;;;;7.85;4.57;;;;;;;24.48;58.44;99873.06;5030604;28;20108;-77
2023/08/24 08:24:36;;;;;;;5.90;4.43;;;;;;;24.57;58.86;99880.06;5017505;28;20053;-76
2023/08/24 08:27:02;;;;;;;7.40;4.82;;;;;;;24.68;57.43;99879.66;5034776;28;20049;-82
2023/08/24 08:29:29;;;;;;;5.95;4.88;;;;;;;24.77;56.84;99888.53;5034707;28;20476;-77
2023/08/24 08:31:56;;;;;;;5.97;4.90;;;;;;;24.87;56.53;99882.94;5017110;28;20102;-77
2023/08/24 08:34:22;;;;;;;7.72;4.85;;;;;;;24.96;56.82;99878.31;5048779;28;20053;-78
2023/08/24 08:36:49;;;;;;;9.32;4.75;;;;;;;25.04;56.98;99880.97;5054647;28;20061;-79
2023/08/24 08:39:17;;;;;;;5.90;4.30;;;;;;;25.13;56.93;99875.50;5054283;28;20045;-77
2023/08/24 08:41:46;;;;;;;10.13;5.43;;;;;;;25.21;55.94;99881.69;5054512;28;20056;-78
2023/08/24 08:44:16;;;;;;;6.25;5.13;;;;;;;25.29;55.51;99866.44;5026296;28;20131;-78
2023/08/24 08:46:43;;;;;;;7.55;5.15;;;;;;;25.37;55.55;99856.44;5047847;28;20138;-78
2023/08/24 08:49:12;;;;;;;6.47;5.30;;;;;;;25.45;55.30;99846.63;5054326;28;20092;-81
2023/08/24 08:51:39;;;;;;;6.25;4.97;;;;;;;25.53;55.37;99854.59;5054341;28;20099;-77
2023/08/24 08:54:05;;;;;;;6.50;4.70;;;;;;;25.61;56.12;99854.56;5048487;28;20042;-76
2023/08/24 08:56:33;;;;;;;7.47;5.25;;;;;;;25.69;55.55;99842.03;5034077;28;20496;-79
2023/08/24 08:59:00;;;;;;;8.85;4.72;;;;;;;25.79;55.97;99847.97;5037441;28;20140;-81
2023/08/24 09:01:28;;;;;;;6.00;4.82;;;;;;;25.88;56.59;99844.19;5054066;28;20048;-76
2023/08/24 09:03:56;;;;;;;7.18;5.22;;;;;;;25.98;55.85;99841.19;5054157;28;20055;-78
2023/08/24 09:06:23;;;;;;;7.72;5.40;;;;;;;26.08;56.06;99850.84;5054173;28;20123;-78
2023/08/24 09:08:52;;;;;;;12.52;5.47;;;;;;;26.19;54.87;99844.13;5054052;28;20053;-79
2023/08/24 09:11:19;;;;;;;7.78;4.88;;;;;;;26.30;54.58;99838.28;5035331;28;20555;-74
2023/08/24 09:13:45;;;;;;;6.35;4.93;;;;;;;26.40;54.25;99836.13;5036011;28;20131;-77
2023/08/24 09:16:15;;;;;;;5.22;4.70;;;;;;;26.52;54.06;99835.63;5053693;28;20072;-77
2023/08/24 09:18:47;;;;;;;10.18;4.63;;;;;;;26.62;53.05;99836.16;5054199;28;20409;-75
2023/08/24 09:21:15;;;;;;;9.60;4.80;;;;;;;26.77;53.17;99835.28;5037464;28;20049;-77
2023/08/24 09:23:52;;;;;;;4.63;4.13;;;;;;;26.89;53.20;99830.19;5034045;28;20211;-74
2023/08/24 09:26:36;;;;;;;6.90;5.10;;;;;;;27.01;52.87;99833.22;5033714;28;20128;-77
2023/08/24 09:29:14;;;;;;;6.97;4.63;;;;;;;27.16;52.11;99835.84;5033543;28;20049;-74
2023/08/24 09:31:43;;;;;;;9.82;4.70;;;;;;;27.31;51.31;99830.34;5047501;28;20055;-77
2023/08/24 09:34:10;;;;;;;5.43;4.35;;;;;;;27.43;51.53;99831.47;5037483;28;20081;-75
2023/08/24 09:36:39;;;;;;;10.90;4.80;;;;;;;27.54;51.12;99830.09;5033373;28;20064;-75
2023/08/24 09:39:06;;;;;;;5.50;4.20;;;;;;;27.64;51.09;99815.41;5032999;28;20414;-75
2023/08/24 09:41:49;;;;;;;5.28;4.13;;;;;;;27.70;50.82;99815.44;5033272;28;20457;-76
2023/08/24 09:44:19;;;;;;;5.68;4.05;;;;;;;27.84;51.49;99815.53;5045657;28;20565;-77
2023/08/24 09:46:46;;;;;;;7.93;4.13;;;;;;;27.95;51.72;99806.00;5053228;28;20539;-74
2023/08/24 09:49:12;;;;;;;4.90;4.07;;;;;;;28.06;51.57;99796.47;5053000;28;20147;-76
2023/08/24 09:51:41;;;;;;;4.25;3.72;;;;;;;28.16;52.11;99783.41;5053144;28;20053;-74
2023/08/24 09:54:10;;;;;;;6.85;4.05;;;;;;;28.26;50.08;99784.94;5034850;28;20061;-77
2023/08/24 09:56:41;;;;;;;6.13;3.72;;;;;;;28.34;49.83;99782.03;5052919;28;20486;-75
2023/08/24 09:59:16;;;;;;;5.70;4.40;;;;;;;28.45;50.59;99778.72;5052907;28;20059;-76
2023/08/24 10:01:47;;;;;;;7.00;4.07;;;;;;;28.56;50.51;99782.69;5052909;28;20132;-75
2023/08/24 10:04:24;;;;;;;6.13;4.05;;;;;;;28.66;49.88;99778.78;5028633;28;20049;-75
2023/08/24 10:06:58;;;;;;;6.63;4.35;;;;;;;28.79;49.06;99777.94;5026582;28;20132;-74
2023/08/24 10:09:35;;;;;;;5.65;4.13;;;;;;;28.87;47.96;99770.44;5034911;28;20152;-76
2023/08/24 10:12:04;;;;;;;7.22;5.05;;;;;;;28.98;48.04;99760.03;5052783;28;20049;-75
2023/08/24 10:14:39;;;;;;;9.30;4.10;;;;;;;29.05;48.20;99755.47;5046125;28;20520;-74
2023/08/24 10:17:07;;;;;;;10.05;4.20;;;;;;;29.15;48.56;99752.31;5032642;28;20529;-75
2023/08/24 10:19:34;;;;;;;5.43;3.22;;;;;;;29.21;48.29;99742.50;5045553;28;20153;-77
2023/08/24 10:22:02;;;;;;;6.07;3.90;;;;;;;29.27;47.64;99742.47;5034643;28;20561;-74
2023/08/24 10:24:31;;;;;;;5.03;3.60;;;;;;;29.34;48.59;99742.47;5034704;28;20045;-76
2023/08/24 10:26:59;;;;;;;5.88;3.88;;;;;;;29.46;49.41;99745.38;5052293;28;20196;-74
2023/08/24 10:29:27;;;;;;;4.25;3.00;;;;;;;29.57;48.50;99746.63;5043747;28;20049;-76
2023/08/24 10:31:54;;;;;;;6.47;3.10;;;;;;;29.68;47.31;99739.69;5032494;28;20069;-79
2023/08/24 10:34:22;;;;;;;4.10;2.70;;;;;;;29.80;46.34;99747.16;5122023;22;20106;-74
2023/08/24 10:36:49;;;;;;;6.10;3.05;;;;;;;29.89;46.65;99737.72;5035956;28;20053;-76
2023/08/24 10:39:16;;;;;;;3.97;3.00;;;;;;;29.99;46.36;99740.81;5051281;28;20044;-75
2023/08/24 10:41:53;;;;;;;5.53;3.40;;;;;;;30.07;46.80;99738.88;5052469;28;20056;-78
2023/08/24 10:44:43;;;;;;;3.45;3.00;;;;;;;30.15;47.26;99736.78;5052117;28;20642;-75
2023/08/24 10:47:23;;;;;;;4.63;3.10;;;;;;;30.28;46.54;99735.03;5051272;28;20138;-75
2023/08/24 10:49:56;;;;;;;4.22;2.80;;;;;;;30.39;45.55;99730.78;5046183;28;20049;-76
2023/08/24 10:52:24;;;;;;;5.70;2.78;;;;;;;30.52;45.47;99727.97;5032008;28;20081;-74
2023/08/24 10:54:54;;;;;;;3.50;2.90;;;;;;;30.63;44.39;99726.44;5032166;28;20075;-77
2023/08/24 10:57:27;;;;;;;6.15;2.63;;;;;;;30.76;43.61;99705.66;5031985;28;20108;-76
2023/08/24 11:00:05;;;;;;;3.70;2.88;;;;;;;30.94;44.77;99689.38;5034654;28;20110;-77
2023/08/24 11:02:49;;;;;;;5.80;2.80;;;;;;;31.21;44.57;99682.84;5051728;28;20061;-78
2023/08/24 11:05:33;;;;;;;6.70;3.30;;;;;;;31.59;44.41;99676.31;5034163;28;20044;-76
2023/08/24 11:08:02;;;;;;;4.20;2.60;;;;;;;32.04;44.72;99666.13;5051542;28;20448;-74
2023/08/24 11:10:46;;;;;;;4.00;2.50;;;;;;;32.53;43.00;99667.06;5051093;28;20045;-77
2023/08/24 11:13:15;;;;;;;4.72;2.92;;;;;;;33.05;43.05;99660.91;5051815;28;20481;-78
2023/08/24 11:15:43;;;;;;;5.13;3.00;;;;;;;33.53;42.65;99653.41;5051682;28;20504;-75
2023/08/24 11:18:19;;;;;;;4.82;2.78;;;;;;;34.00;40.59;99648.00;5051495;28;20063;-75
2023/08/24 11:20:47;;;;;;;5.22;2.65;;;;;;;34.44;40.15;99640.03;5029551;28;20088;-76
2023/08/24 11:23:19;;;;;;;4.80;2.25;;;;;;;34.83;39.30;99643.91;5031357;28;20057;-75
2023/08/24 11:25:46;;;;;;;4.30;2.30;;;;;;;35.20;38.83;99643.31;5013988;28;20048;-74
2023/08/24 11:28:18;;;;;;;4.72;3.08;;;;;;;35.56;38.21;99631.09;5031453;28;20351;-76
2023/08/24 11:30:45;;;;;;;4.97;2.15;;;;;;;35.93;38.19;99627.66;5031222;28;20060;-75
2023/08/24 11:33:15;;;;;;;4.88;2.33;;;;;;;36.31;37.45;99613.19;5031610;28;20136;-74
2023/08/24 11:35:44;;;;;;;3.55;1.90;;;;;;;36.68;37.04;99620.56;5042682;28;20076;-75